MAPA DE AEROPUERTO

INFORMACIÓN METAR y TAF

METAR FOR BIIS
ADDS - METARS form results

(1257 UTC 26 February 2021)
Data provider http://aviationweather.gov/metar/data/
 
METAR text: BIIS 261200Z 03006KT 9999 OVC030 05/02 Q0993 R88/290195
Conditions at: BIIS (ISAFJOROUR , IS) observed 1200 UTC 26 February 2021
Temperature: 5.0°C (41°F)
Dewpoint: 2.0°C (36°F) [RH = 81%]
Pressure (altimeter): 29.32 inches Hg (993.0 mb)
Winds: from the NNE (30 degrees) at 7 MPH (6 knots; 3.1 m/s)
Visibility: 6 or more miles (10+ km)
Ceiling: 3000 feet AGL
Clouds: overcast cloud deck at 3000 feet AGL
Weather: no significant weather observed at this time

Forecast for: BIIS (ISAFJOROUR , IS)
Text: TAF BIIS 261013Z 2611/2620 16012KT 9999 -RA BKN030
Forecast period: 1100 to 2000 UTC 26 February 2021
Forecast type: FROM: standard forecast or significant change
Winds: from the SSE (160 degrees) at 14 MPH (12 knots; 6.2 m/s)
Visibility: 6 or more miles (10+ km)
Ceiling: 3000 feet AGL
Clouds: broken clouds at 3000 feet AGL
Weather: -RA  (light rain)
Text: TEMPO 2611/2616 05010KT 4000 RADZ BKN010
Forecast period: 1100 to 1600 UTC 26 February 2021
Forecast type: TEMPORARY: The following changes expected for less than half the time period
Winds: from the NE (50 degrees) at 12 MPH (10 knots; 5.1 m/s)
Visibility: 2.49 miles (4.01 km)
Ceiling: 1000 feet AGL
Clouds: broken clouds at 1000 feet AGL
Weather: RA DZ  (moderate rain, moderate drizzle)